Terminal Aerodrome Forecast
Issued by NWS El Paso, TX

Home | Current Version | Previous Version | Text Only | Print | Product List | Glossary On
Versions: 1 2 3 4 5 6 7 8 9 10 11 12
000
FTUS44 KEPZ 301700
TAFELP
TAF
KELP 301724Z 3018/3118 07011G18KT P6SM VCSH SCT020 OVC080
     FM302100 09011KT P6SM SHRA BKN020 OVC080
      TEMPO 3102/3106 3SM RA OVC015
     FM310600 08005KT 6SM -RA OVC015
     FM311400 VRB04KT P6SM VCSH BKN020 OVC100=

USA.gov is the U.S. government's official web portal to all federal, state and local government web resources and services.